Time;durP1;ratioP1;P1;durP2;ratioP2;P2;SDS_P1;SDS_P2;PMS_P1;PMS_P2;Temp;Humidity;BMP_temperature;BMP_pressure;BME280_temperature;BME280_humidity;BME280_pressure;Samples;Min_cycle;Max_cycle;Signal;HPM_P1;HPM_P2
2024/04/06 00:01:30;;;;;;;;;;;14.30;99.90;;;;;;5060410;28;19920;-79
2024/04/06 00:03:56;;;;;;;;;;;14.30;99.90;;;;;;5060125;28;19912;-80
2024/04/06 00:06:21;;;;;;;;;;;14.30;99.90;;;;;;5025780;28;19912;-80
2024/04/06 00:08:50;;;;;;;;;;;14.30;99.90;;;;;;5058679;28;19974;-80
2024/04/06 00:11:16;;;;;;;;;;;14.40;99.90;;;;;;5052345;28;20591;-80
2024/04/06 00:13:42;;;;;;;;;;;14.40;99.90;;;;;;5071530;28;20324;-79
2024/04/06 00:16:07;;;;;;;;;;;14.50;99.90;;;;;;5061580;28;19927;-79
2024/04/06 00:18:35;;;;;;;;;;;14.60;99.90;;;;;;5062362;28;19912;-80
2024/04/06 00:21:02;;;;;;;;;;;14.60;99.90;;;;;;5078351;28;20333;-80
2024/04/06 00:23:28;;;;;;;;;;;14.60;99.90;;;;;;5063212;28;20011;-80
2024/04/06 00:25:53;;;;;;;;;;;14.60;99.90;;;;;;5061936;28;19967;-80
2024/04/06 00:28:19;;;;;;;;;;;14.60;99.90;;;;;;5075802;28;19924;-80
2024/04/06 00:30:45;;;;;;;;;;;14.60;99.90;;;;;;5061954;28;20054;-80
2024/04/06 00:33:11;;;;;;;;;;;14.50;99.90;;;;;;5094068;28;20329;-80
2024/04/06 00:35:37;;;;;;;;;;;14.50;99.90;;;;;;5085599;28;19920;-80
2024/04/06 00:38:02;;;;;;;;;;;14.50;99.90;;;;;;5054386;28;19925;-78
2024/04/06 00:40:28;;;;;;;;;;;14.50;99.90;;;;;;5051497;28;20011;-79
2024/04/06 00:42:53;;;;;;;;;;;14.50;99.90;;;;;;5064702;28;19995;-78
2024/04/06 00:45:19;;;;;;;;;;;14.50;99.90;;;;;;5083786;28;20034;-79
2024/04/06 00:47:45;;;;;;;;;;;14.40;99.90;;;;;;5077814;28;19966;-79
2024/04/06 00:50:10;;;;;;;;;;;14.40;99.90;;;;;;5059692;28;19913;-79
2024/04/06 00:52:37;;;;;;;;;;;14.40;99.90;;;;;;5060270;28;19916;-78
2024/04/06 00:55:03;;;;;;;;;;;14.40;99.90;;;;;;5059983;28;19927;-78
2024/04/06 00:57:29;;;;;;;;;;;14.40;99.90;;;;;;5060358;28;20329;-78
2024/04/06 00:59:55;;;;;;;;;;;14.40;99.90;;;;;;5042780;28;19924;-79
2024/04/06 01:02:20;;;;;;;;;;;14.40;99.90;;;;;;5075800;28;19962;-78
2024/04/06 01:04:46;;;;;;;;;;;14.40;99.90;;;;;;5094674;28;19912;-78
2024/04/06 01:07:11;;;;;;;;;;;14.50;99.90;;;;;;5059429;28;20252;-78
2024/04/06 01:09:37;;;;;;;;;;;14.50;99.90;;;;;;5060124;28;20681;-78
2024/04/06 01:12:03;;;;;;;;;;;14.50;99.90;;;;;;5072044;28;19912;-78
2024/04/06 01:14:28;;;;;;;;;;;14.50;99.90;;;;;;5064665;28;19919;-78
2024/04/06 01:16:54;;;;;;;;;;;14.50;99.90;;;;;;5070819;28;20244;-78
2024/04/06 01:19:19;;;;;;;;;;;14.50;99.90;;;;;;5060615;28;20016;-78
2024/04/06 01:21:45;;;;;;;;;;;14.50;99.90;;;;;;5060573;28;19920;-78
2024/04/06 01:24:26;;;;;;;;;;;14.50;99.90;;;;;;5077555;28;19923;-78
2024/04/06 01:26:52;;;;;;;;;;;14.50;99.90;;;;;;5050021;28;19924;-78
2024/04/06 01:29:18;;;;;;;;;;;14.50;99.90;;;;;;5059872;28;19912;-79
2024/04/06 01:31:44;;;;;;;;;;;14.50;99.90;;;;;;5096258;28;19916;-79
2024/04/06 01:34:10;;;;;;;;;;;14.40;99.90;;;;;;5076270;28;20030;-79
2024/04/06 01:36:36;;;;;;;;;;;14.50;99.90;;;;;;5076414;28;19999;-79
2024/04/06 01:39:02;;;;;;;;;;;14.40;99.90;;;;;;5060460;28;20669;-79
2024/04/06 01:41:28;;;;;;;;;;;14.40;99.90;;;;;;5047032;28;19923;-79
2024/04/06 01:43:53;;;;;;;;;;;14.40;99.90;;;;;;5092034;28;19951;-78
2024/04/06 01:46:19;;;;;;;;;;;14.40;99.90;;;;;;5080448;28;19923;-79
2024/04/06 01:48:45;;;;;;;;;;;14.30;99.90;;;;;;5101934;28;19939;-79
2024/04/06 01:51:11;;;;;;;;;;;14.40;99.90;;;;;;5081068;28;19955;-79
2024/04/06 01:53:36;;;;;;;;;;;14.30;99.90;;;;;;5079706;28;19919;-79
2024/04/06 01:56:02;;;;;;;;;;;14.30;99.90;;;;;;5059676;28;19924;-79
2024/04/06 01:58:27;;;;;;;;;;;14.30;99.90;;;;;;5059747;28;19916;-79
2024/04/06 02:00:53;;;;;;;;;;;14.30;99.90;;;;;;5078630;28;19919;-79
2024/04/06 02:03:19;;;;;;;;;;;14.20;99.90;;;;;;5046405;28;19922;-79
2024/04/06 02:05:44;;;;;;;;;;;14.20;99.90;;;;;;5079696;28;19927;-78
2024/04/06 02:08:10;;;;;;;;;;;14.10;99.90;;;;;;5079235;28;20229;-79
2024/04/06 02:10:35;;;;;;;;;;;14.10;99.90;;;;;;5045557;28;19919;-76
2024/04/06 02:13:01;;;;;;;;;;;14.10;99.90;;;;;;5045216;28;19968;-76
2024/04/06 02:15:26;;;;;;;;;;;14.00;99.90;;;;;;5076822;28;20389;-76
2024/04/06 02:17:53;;;;;;;;;;;14.00;99.90;;;;;;5078717;28;19916;-76
2024/04/06 02:20:19;;;;;;;;;;;14.00;99.90;;;;;;5062259;28;19924;-76
2024/04/06 02:22:44;;;;;;;;;;;14.00;99.90;;;;;;5066097;28;19920;-76
2024/04/06 02:25:10;;;;;;;;;;;14.00;99.90;;;;;;5090256;28;19927;-76
2024/04/06 02:27:36;;;;;;;;;;;13.90;99.90;;;;;;5078684;28;19923;-76
2024/04/06 02:30:02;;;;;;;;;;;13.90;99.90;;;;;;5095985;28;19951;-76
2024/04/06 02:32:28;;;;;;;;;;;13.90;99.90;;;;;;5047193;28;20279;-76
2024/04/06 02:34:54;;;;;;;;;;;13.90;99.90;;;;;;5078498;28;19955;-76
2024/04/06 02:37:19;;;;;;;;;;;13.90;99.90;;;;;;5085528;28;20036;-77
2024/04/06 02:39:45;;;;;;;;;;;13.90;99.90;;;;;;5050150;28;20299;-77
2024/04/06 02:42:11;;;;;;;;;;;13.80;99.90;;;;;;5061074;28;19913;-77
2024/04/06 02:44:36;;;;;;;;;;;13.80;99.90;;;;;;5076190;28;20445;-76
2024/04/06 02:47:02;;;;;;;;;;;13.80;99.90;;;;;;5044517;28;19969;-77
2024/04/06 02:49:28;;;;;;;;;;;13.80;99.90;;;;;;5096126;28;19919;-76
2024/04/06 02:51:54;;;;;;;;;;;13.80;99.90;;;;;;5077037;28;19938;-76
2024/04/06 02:54:19;;;;;;;;;;;13.70;99.90;;;;;;5077661;28;19920;-76
2024/04/06 02:56:45;;;;;;;;;;;13.70;99.90;;;;;;5110199;28;20320;-77
2024/04/06 02:59:11;;;;;;;;;;;13.70;99.90;;;;;;5078636;28;20006;-77
2024/04/06 03:01:38;;;;;;;;;;;13.70;99.90;;;;;;5078516;28;20346;-78
2024/04/06 03:04:04;;;;;;;;;;;13.70;99.90;;;;;;5071251;28;19916;-78
2024/04/06 03:06:30;;;;;;;;;;;13.60;99.90;;;;;;5087887;28;20436;-79
2024/04/06 03:08:55;;;;;;;;;;;13.60;99.90;;;;;;5067208;28;19921;-77
2024/04/06 03:11:21;;;;;;;;;;;13.50;99.90;;;;;;5091038;28;20003;-76
2024/04/06 03:13:47;;;;;;;;;;;13.50;99.90;;;;;;5044067;28;19924;-77
2024/04/06 03:16:13;;;;;;;;;;;13.50;99.90;;;;;;5061034;28;19916;-77
2024/04/06 03:18:39;;;;;;;;;;;13.60;99.90;;;;;;5095114;28;19916;-77
2024/04/06 03:21:06;;;;;;;;;;;13.50;99.90;;;;;;5076883;28;19920;-77
2024/04/06 03:23:32;;;;;;;;;;;13.60;99.90;;;;;;5086418;28;19912;-76
2024/04/06 03:25:57;;;;;;;;;;;13.50;99.90;;;;;;5085116;28;20374;-77
2024/04/06 03:28:23;;;;;;;;;;;13.50;99.90;;;;;;5060670;28;19916;-76
2024/04/06 03:30:49;;;;;;;;;;;13.50;99.90;;;;;;5083053;28;19916;-76
2024/04/06 03:33:14;;;;;;;;;;;13.50;99.90;;;;;;5076804;28;19926;-76
2024/04/06 03:35:40;;;;;;;;;;;13.50;99.90;;;;;;5061427;28;19923;-76
2024/04/06 03:38:05;;;;;;;;;;;13.50;99.90;;;;;;5060017;28;19920;-77
2024/04/06 03:40:31;;;;;;;;;;;13.50;99.90;;;;;;5094928;28;19924;-77
2024/04/06 03:42:57;;;;;;;;;;;13.40;99.90;;;;;;5042999;28;19912;-76
2024/04/06 03:45:23;;;;;;;;;;;13.40;99.90;;;;;;5055671;28;19956;-76
2024/04/06 03:47:48;;;;;;;;;;;13.40;99.90;;;;;;5071233;28;19947;-77
2024/04/06 03:50:14;;;;;;;;;;;13.40;99.90;;;;;;5069797;28;19924;-76
2024/04/06 03:52:43;;;;;;;;;;;13.40;99.90;;;;;;5086683;28;19946;-77
2024/04/06 03:55:08;;;;;;;;;;;13.40;99.90;;;;;;5107221;28;20329;-76
2024/04/06 03:57:34;;;;;;;;;;;13.30;99.90;;;;;;5095072;28;20256;-76
2024/04/06 04:00:00;;;;;;;;;;;13.30;99.90;;;;;;5076869;28;19920;-76
2024/04/06 04:02:25;;;;;;;;;;;13.30;99.90;;;;;;5094872;28;19912;-76
2024/04/06 04:04:51;;;;;;;;;;;13.30;99.90;;;;;;5061409;28;20309;-77
2024/04/06 04:07:17;;;;;;;;;;;13.20;99.90;;;;;;5060017;28;19915;-76
2024/04/06 04:09:42;;;;;;;;;;;13.20;99.90;;;;;;5060055;28;19912;-76
2024/04/06 04:12:08;;;;;;;;;;;13.20;99.90;;;;;;5073780;28;20544;-77
2024/04/06 04:14:33;;;;;;;;;;;13.20;99.90;;;;;;5058406;28;20410;-78
2024/04/06 04:16:59;;;;;;;;;;;13.30;99.90;;;;;;5044203;28;19961;-78
2024/04/06 04:19:25;;;;;;;;;;;13.20;99.90;;;;;;5043630;28;19916;-77
2024/04/06 04:21:51;;;;;;;;;;;13.20;99.90;;;;;;5064368;28;19920;-78
2024/04/06 04:24:18;;;;;;;;;;;13.20;99.90;;;;;;5084086;28;19995;-76
2024/04/06 04:26:44;;;;;;;;;;;13.20;99.90;;;;;;5077028;28;20715;-77
2024/04/06 04:29:09;;;;;;;;;;;13.20;99.90;;;;;;5077315;28;19999;-77
2024/04/06 04:31:35;;;;;;;;;;;13.10;99.90;;;;;;5069524;28;19935;-77
2024/04/06 04:34:01;;;;;;;;;;;13.10;99.90;;;;;;5095308;28;19912;-77
2024/04/06 04:36:26;;;;;;;;;;;13.10;99.90;;;;;;5049475;28;19941;-77
2024/04/06 04:38:52;;;;;;;;;;;13.00;99.90;;;;;;5077616;28;20415;-77
2024/04/06 04:41:18;;;;;;;;;;;13.00;99.90;;;;;;5076562;28;19920;-77
2024/04/06 04:43:43;;;;;;;;;;;13.00;99.90;;;;;;5068898;28;19962;-76
2024/04/06 04:46:09;;;;;;;;;;;13.00;99.90;;;;;;5093468;28;20305;-77
2024/04/06 04:48:53;;;;;;;;;;;13.00;99.90;;;;;;5090329;28;19912;-77
2024/04/06 04:51:19;;;;;;;;;;;13.10;99.90;;;;;;5073396;28;19916;-77
2024/04/06 04:53:47;;;;;;;;;;;13.00;99.90;;;;;;5063419;28;19920;-77
2024/04/06 04:56:13;;;;;;;;;;;13.00;99.90;;;;;;5044010;28;19917;-77
2024/04/06 04:58:39;;;;;;;;;;;13.10;99.90;;;;;;5066141;28;20325;-77
2024/04/06 05:01:05;;;;;;;;;;;13.00;99.90;;;;;;5043003;28;19920;-77
2024/04/06 05:03:33;;;;;;;;;;;13.10;99.90;;;;;;5093681;28;19916;-77
2024/04/06 05:05:58;;;;;;;;;;;13.10;99.90;;;;;;5059840;28;19916;-78
2024/04/06 05:08:24;;;;;;;;;;;13.00;99.90;;;;;;5060110;28;20077;-78
2024/04/06 05:10:50;;;;;;;;;;;13.10;99.90;;;;;;5095130;28;19923;-78
2024/04/06 05:13:16;;;;;;;;;;;13.10;99.90;;;;;;5044040;28;19972;-78
2024/04/06 05:15:48;;;;;;;;;;;13.10;99.90;;;;;;5064257;28;20007;-77
2024/04/06 05:18:14;;;;;;;;;;;13.10;99.90;;;;;;5066562;28;19912;-77
2024/04/06 05:20:47;;;;;;;;;;;13.20;99.90;;;;;;5080760;28;20351;-76
2024/04/06 05:23:13;;;;;;;;;;;13.10;99.90;;;;;;5064242;28;19923;-77
2024/04/06 05:25:39;;;;;;;;;;;13.10;99.90;;;;;;5088346;28;20236;-77
2024/04/06 05:28:05;;;;;;;;;;;13.20;99.90;;;;;;5067827;28;19912;-77
2024/04/06 05:30:31;;;;;;;;;;;13.20;99.90;;;;;;5082866;28;19916;-77
2024/04/06 05:33:05;;;;;;;;;;;13.10;99.90;;;;;;5080416;28;19942;-78
2024/04/06 05:35:31;;;;;;;;;;;13.20;99.90;;;;;;5098082;28;19916;-78
2024/04/06 05:37:57;;;;;;;;;;;13.20;99.90;;;;;;5063660;28;19919;-77
2024/04/06 05:40:23;;;;;;;;;;;13.10;99.90;;;;;;5064889;28;19931;-77
2024/04/06 05:42:49;;;;;;;;;;;13.20;99.90;;;;;;5096312;28;20003;-78
2024/04/06 05:45:15;;;;;;;;;;;13.10;99.90;;;;;;5067202;28;19970;-78
2024/04/06 05:47:41;;;;;;;;;;;13.20;99.90;;;;;;5095404;28;19912;-78
2024/04/06 05:50:07;;;;;;;;;;;13.20;99.90;;;;;;5061641;28;20352;-78
2024/04/06 05:52:33;;;;;;;;;;;13.20;99.90;;;;;;5079318;28;19912;-77
2024/04/06 05:54:59;;;;;;;;;;;13.10;99.90;;;;;;5077642;28;19916;-78
2024/04/06 05:57:25;;;;;;;;;;;13.10;99.90;;;;;;5061388;28;19919;-77
2024/04/06 05:59:50;;;;;;;;;;;13.10;99.90;;;;;;5062246;28;20241;-77
2024/04/06 06:02:16;;;;;;;;;;;13.20;99.90;;;;;;5058799;28;19927;-77
2024/04/06 06:04:42;;;;;;;;;;;13.20;99.90;;;;;;5058205;28;19923;-77
2024/04/06 06:07:08;;;;;;;;;;;13.20;99.90;;;;;;5048951;28;20349;-77
2024/04/06 06:09:34;;;;;;;;;;;13.20;99.90;;;;;;5045403;28;19923;-78
2024/04/06 06:12:19;;;;;;;;;;;13.30;99.90;;;;;;5062433;28;20403;-79
2024/04/06 06:15:14;;;;;;;;;;;13.40;99.90;;;;;;4993059;28;19918;-79
2024/04/06 06:17:49;;;;;;;;;;;13.40;99.90;;;;;;4975452;28;19917;-80
2024/04/06 06:20:15;;;;;;;;;;;13.40;99.90;;;;;;4977145;28;20446;-80
2024/04/06 06:22:41;;;;;;;;;;;13.40;99.90;;;;;;4991332;28;19925;-80
2024/04/06 06:25:06;;;;;;;;;;;13.40;99.90;;;;;;5055919;28;20141;-80
2024/04/06 06:27:32;;;;;;;;;;;13.50;99.90;;;;;;5098340;28;19942;-80
2024/04/06 06:29:59;;;;;;;;;;;13.50;99.90;;;;;;5096151;28;20232;-80
2024/04/06 06:32:25;;;;;;;;;;;13.50;99.90;;;;;;5084920;28;19923;-80
2024/04/06 06:34:50;;;;;;;;;;;13.50;99.90;;;;;;5042546;28;19916;-80
2024/04/06 06:37:16;;;;;;;;;;;13.60;99.90;;;;;;5056502;28;19912;-80
2024/04/06 06:39:41;;;;;;;;;;;13.60;99.90;;;;;;5099134;28;19918;-80
2024/04/06 06:42:08;;;;;;;;;;;13.60;99.90;;;;;;5031260;28;1922697;-79
2024/04/06 06:44:34;;;;;;;;;;;13.60;99.90;;;;;;5078806;28;19916;-79
2024/04/06 06:47:01;;;;;;;;;;;13.70;99.90;;;;;;5087597;28;19916;-80
2024/04/06 06:49:26;;;;;;;;;;;13.80;99.90;;;;;;5097070;28;20597;-80
2024/04/06 06:51:52;;;;;;;;;;;13.90;99.90;;;;;;5069346;28;19916;-80
2024/04/06 06:54:18;;;;;;;;;;;13.90;99.90;;;;;;5097214;28;19912;-80
2024/04/06 06:56:43;;;;;;;;;;;14.00;99.90;;;;;;5037861;28;19924;-80
2024/04/06 06:59:09;;;;;;;;;;;14.00;99.90;;;;;;5059018;28;19912;-80
2024/04/06 07:01:35;;;;;;;;;;;14.10;99.90;;;;;;5058512;28;20013;-78
2024/04/06 07:04:00;;;;;;;;;;;14.10;99.90;;;;;;5086209;28;19927;-78
2024/04/06 07:06:26;;;;;;;;;;;14.20;99.90;;;;;;5107221;28;19916;-78
2024/04/06 07:08:52;;;;;;;;;;;14.20;99.90;;;;;;5103482;28;20244;-78
2024/04/06 07:11:18;;;;;;;;;;;14.30;99.90;;;;;;5058942;28;19943;-78
2024/04/06 07:13:43;;;;;;;;;;;14.30;99.90;;;;;;5079164;28;20260;-78
2024/04/06 07:16:12;;;;;;;;;;;14.40;99.90;;;;;;5048530;28;19923;-78
2024/04/06 07:18:38;;;;;;;;;;;14.40;99.90;;;;;;5091962;28;19912;-78
2024/04/06 07:21:04;;;;;;;;;;;14.60;99.90;;;;;;5079695;28;19923;-78
2024/04/06 07:23:30;;;;;;;;;;;14.60;99.90;;;;;;5059586;28;19923;-78
2024/04/06 07:25:55;;;;;;;;;;;14.60;99.90;;;;;;5067686;28;19912;-78
2024/04/06 07:28:21;;;;;;;;;;;14.70;99.90;;;;;;5079536;28;19916;-79
2024/04/06 07:30:47;;;;;;;;;;;14.90;99.90;;;;;;5062820;28;19920;-79
2024/04/06 07:33:12;;;;;;;;;;;14.90;99.90;;;;;;5067675;28;19912;-79
2024/04/06 07:35:38;;;;;;;;;;;15.20;99.90;;;;;;5051397;28;20007;-79
2024/04/06 07:38:07;;;;;;;;;;;15.30;99.90;;;;;;5076552;28;19951;-79
2024/04/06 07:40:32;;;;;;;;;;;15.40;99.90;;;;;;5065597;28;19924;-79
2024/04/06 07:42:59;;;;;;;;;;;15.60;99.90;;;;;;5080767;28;20393;-79
2024/04/06 07:45:25;;;;;;;;;;;15.60;99.90;;;;;;5071708;28;20324;-79
2024/04/06 07:47:51;;;;;;;;;;;15.70;99.90;;;;;;5096301;28;19955;-78
2024/04/06 07:50:17;;;;;;;;;;;15.70;99.90;;;;;;5070216;28;19912;-79
2024/04/06 07:52:43;;;;;;;;;;;15.80;99.90;;;;;;5096321;28;19934;-79
2024/04/06 07:55:08;;;;;;;;;;;15.90;99.90;;;;;;5078328;28;19916;-79
2024/04/06 07:57:35;;;;;;;;;;;15.90;99.90;;;;;;5089510;28;19927;-79
2024/04/06 08:00:01;;;;;;;;;;;16.00;99.90;;;;;;5087384;28;19920;-79
2024/04/06 08:02:28;;;;;;;;;;;16.00;99.90;;;;;;5058636;28;19915;-79
2024/04/06 08:04:56;;;;;;;;;;;16.20;99.90;;;;;;5077497;28;19916;-79
2024/04/06 08:07:22;;;;;;;;;;;16.20;99.90;;;;;;5077383;28;19912;-79
2024/04/06 08:09:47;;;;;;;;;;;16.30;99.90;;;;;;5095129;28;19927;-79
2024/04/06 08:12:13;;;;;;;;;;;16.40;99.90;;;;;;5080294;28;20010;-79
2024/04/06 08:14:39;;;;;;;;;;;16.50;99.90;;;;;;5077592;28;20309;-79
2024/04/06 08:17:05;;;;;;;;;;;16.60;99.90;;;;;;5090683;28;19923;-79
2024/04/06 08:19:30;;;;;;;;;;;16.60;99.90;;;;;;5061290;28;19923;-79
2024/04/06 08:21:56;;;;;;;;;;;16.70;99.90;;;;;;5095399;28;20010;-79
2024/04/06 08:24:21;;;;;;;;;;;16.70;99.90;;;;;;5058689;28;20348;-79
2024/04/06 08:26:47;;;;;;;;;;;16.80;99.90;;;;;;5076952;28;19969;-79
2024/04/06 08:29:13;;;;;;;;;;;16.90;99.90;;;;;;5077204;28;19923;-79
2024/04/06 08:31:38;;;;;;;;;;;17.10;99.90;;;;;;5044397;28;20033;-79
2024/04/06 08:34:04;;;;;;;;;;;17.10;99.90;;;;;;5060653;28;19923;-79
2024/04/06 08:36:30;;;;;;;;;;;17.20;99.90;;;;;;5060734;28;20525;-79
2024/04/06 08:38:55;;;;;;;;;;;17.30;99.90;;;;;;5077258;28;19919;-80
2024/04/06 08:41:21;;;;;;;;;;;17.40;99.90;;;;;;5092505;28;19924;-80
2024/04/06 08:43:47;;;;;;;;;;;17.40;99.90;;;;;;5112237;28;20003;-80
2024/04/06 08:46:13;;;;;;;;;;;17.50;99.90;;;;;;5093915;28;19956;-79
2024/04/06 08:48:40;;;;;;;;;;;17.70;99.90;;;;;;5076807;28;19958;-80
2024/04/06 08:51:07;;;;;;;;;;;17.80;99.90;;;;;;5045023;28;19916;-80
2024/04/06 08:53:32;;;;;;;;;;;17.90;99.90;;;;;;5042850;28;19916;-79
2024/04/06 08:56:00;;;;;;;;;;;17.90;99.90;;;;;;5077173;28;19923;-79
2024/04/06 08:58:26;;;;;;;;;;;18.00;99.90;;;;;;5057812;28;19964;-79
2024/04/06 09:00:52;;;;;;;;;;;18.10;99.90;;;;;;5077119;28;20632;-79
2024/04/06 09:03:17;;;;;;;;;;;18.20;99.90;;;;;;5060108;28;19983;-80
2024/04/06 09:05:43;;;;;;;;;;;18.20;99.90;;;;;;5094081;28;19912;-79
2024/04/06 09:08:13;;;;;;;;;;;18.20;99.90;;;;;;5059154;28;19959;-79
2024/04/06 09:10:39;;;;;;;;;;;18.30;99.90;;;;;;5077144;28;19920;-79
2024/04/06 09:13:05;;;;;;;;;;;18.30;99.90;;;;;;5079461;28;20339;-79
2024/04/06 09:15:33;;;;;;;;;;;18.30;99.90;;;;;;5080507;28;19923;-79
2024/04/06 09:17:59;;;;;;;;;;;18.40;99.90;;;;;;5060206;28;19920;-79
2024/04/06 09:20:25;;;;;;;;;;;18.50;99.90;;;;;;5060737;28;19916;-79
2024/04/06 09:22:54;;;;;;;;;;;18.50;99.90;;;;;;5075510;28;19924;-79
2024/04/06 09:25:21;;;;;;;;;;;18.50;99.90;;;;;;5074408;28;19927;-78
2024/04/06 09:27:47;;;;;;;;;;;18.50;99.90;;;;;;5040015;28;19916;-79
2024/04/06 09:30:12;;;;;;;;;;;18.60;99.90;;;;;;5063149;28;19923;-78
2024/04/06 09:32:39;;;;;;;;;;;18.70;99.90;;;;;;5078034;28;19979;-78
2024/04/06 09:35:04;;;;;;;;;;;18.70;99.90;;;;;;5056638;28;19916;-80
2024/04/06 09:37:34;;;;;;;;;;;18.80;99.90;;;;;;5092791;28;20381;-80
2024/04/06 09:39:59;;;;;;;;;;;18.80;99.90;;;;;;5082415;28;19912;-80
2024/04/06 09:42:25;;;;;;;;;;;18.90;99.90;;;;;;5065472;28;19919;-80
2024/04/06 09:44:52;;;;;;;;;;;18.90;99.90;;;;;;5060236;28;20324;-80
2024/04/06 09:47:18;;;;;;;;;;;19.00;99.90;;;;;;5043011;28;19927;-79
2024/04/06 09:49:44;;;;;;;;;;;19.20;99.90;;;;;;5075399;28;19916;-80
2024/04/06 09:52:09;;;;;;;;;;;19.30;99.90;;;;;;5083948;28;20559;-79
2024/04/06 09:54:35;;;;;;;;;;;19.30;99.90;;;;;;5043381;28;19939;-80
2024/04/06 09:57:01;;;;;;;;;;;19.60;99.90;;;;;;5060030;28;19916;-80
2024/04/06 09:59:27;;;;;;;;;;;19.70;99.90;;;;;;5086195;28;19997;-80
2024/04/06 10:01:53;;;;;;;;;;;19.70;99.90;;;;;;5098804;28;20007;-80
2024/04/06 10:04:37;;;;;;;;;;;19.90;99.90;;;;;;5069444;28;20049;-80
2024/04/06 10:07:03;;;;;;;;;;;19.90;99.90;;;;;;5079918;28;19927;-80
2024/04/06 10:09:30;;;;;;;;;;;20.10;99.90;;;;;;5043324;28;19989;-80
2024/04/06 10:11:59;;;;;;;;;;;20.10;99.90;;;;;;5075123;28;19912;-81
2024/04/06 10:14:26;;;;;;;;;;;20.20;99.90;;;;;;5047311;28;19916;-81
2024/04/06 10:17:04;;;;;;;;;;;20.20;99.90;;;;;;5048268;28;19912;-81
2024/04/06 10:19:29;;;;;;;;;;;20.20;99.90;;;;;;5082115;28;19916;-79
2024/04/06 10:22:00;;;;;;;;;;;20.20;99.90;;;;;;5070513;28;20627;-80
2024/04/06 10:24:26;;;;;;;;;;;20.30;99.90;;;;;;5081822;28;19912;-80
2024/04/06 10:26:52;;;;;;;;;;;20.40;99.90;;;;;;5082487;28;19947;-79
2024/04/06 10:29:18;;;;;;;;;;;20.40;99.90;;;;;;5064061;28;19912;-80
2024/04/06 10:31:44;;;;;;;;;;;20.50;99.90;;;;;;5077793;28;20321;-80
2024/04/06 10:34:09;;;;;;;;;;;20.50;99.90;;;;;;5078274;28;19916;-80
2024/04/06 10:36:37;;;;;;;;;;;20.70;99.90;;;;;;5078066;28;19926;-80
2024/04/06 10:39:09;;;;;;;;;;;20.80;99.90;;;;;;5038270;28;19916;-80
2024/04/06 10:41:36;;;;;;;;;;;21.00;99.90;;;;;;5044534;28;19924;-81
2024/04/06 10:44:01;;;;;;;;;;;21.00;99.90;;;;;;5064573;28;20598;-80
2024/04/06 10:46:27;;;;;;;;;;;21.10;99.90;;;;;;5068620;28;19955;-80
2024/04/06 10:48:54;;;;;;;;;;;21.10;99.90;;;;;;5044056;28;19916;-80
2024/04/06 10:51:21;;;;;;;;;;;21.10;99.90;;;;;;5061328;28;19913;-81
2024/04/06 10:53:46;;;;;;;;;;;21.20;99.90;;;;;;5076200;28;20008;-81
2024/04/06 10:56:12;;;;;;;;;;;21.30;99.90;;;;;;5080883;28;19912;-81
2024/04/06 10:58:38;;;;;;;;;;;21.50;99.90;;;;;;5074465;28;20336;-80
2024/04/06 11:01:08;;;;;;;;;;;21.50;99.90;;;;;;5047212;28;19919;-81
2024/04/06 11:03:33;;;;;;;;;;;21.60;99.90;;;;;;5078117;28;20010;-79
2024/04/06 11:05:59;;;;;;;;;;;21.70;99.90;;;;;;5063943;28;19966;-81
2024/04/06 11:08:24;;;;;;;;;;;21.70;99.90;;;;;;5080668;28;19939;-82
2024/04/06 11:10:50;;;;;;;;;;;21.80;99.90;;;;;;5062181;28;20025;-80
2024/04/06 11:13:16;;;;;;;;;;;21.90;99.90;;;;;;5059854;28;19916;-81
2024/04/06 11:15:41;;;;;;;;;;;22.10;99.90;;;;;;5080992;28;19923;-81
2024/04/06 11:18:07;;;;;;;;;;;22.30;99.90;;;;;;5076402;28;19965;-81
2024/04/06 11:20:33;;;;;;;;;;;22.30;99.90;;;;;;5054785;28;19935;-81
2024/04/06 11:22:58;;;;;;;;;;;22.40;99.90;;;;;;5082738;28;19927;-80
2024/04/06 11:25:26;;;;;;;;;;;22.40;99.90;;;;;;5063916;28;19927;-81
2024/04/06 11:27:52;;;;;;;;;;;22.60;99.90;;;;;;5078425;28;19920;-80
2024/04/06 11:30:18;;;;;;;;;;;22.60;99.90;;;;;;5081549;28;19912;-81
2024/04/06 11:32:43;;;;;;;;;;;22.70;99.90;;;;;;5081079;28;19923;-81
2024/04/06 11:35:09;;;;;;;;;;;22.90;99.90;;;;;;5097543;28;19912;-81
2024/04/06 11:37:35;;;;;;;;;;;22.90;99.90;;;;;;5063207;28;19912;-80
2024/04/06 11:40:00;;;;;;;;;;;23.10;99.90;;;;;;5079705;28;19916;-81
2024/04/06 11:42:26;;;;;;;;;;;23.10;99.90;;;;;;5080341;28;20321;-80
2024/04/06 11:44:51;;;;;;;;;;;23.20;99.90;;;;;;5054831;28;20347;-82
2024/04/06 11:47:17;;;;;;;;;;;23.30;99.90;;;;;;5076716;28;19916;-79
2024/04/06 11:49:43;;;;;;;;;;;23.30;99.90;;;;;;5052309;28;19947;-80
2024/04/06 11:52:09;;;;;;;;;;;23.40;99.90;;;;;;5052325;28;19923;-80
2024/04/06 11:54:35;;;;;;;;;;;23.40;99.90;;;;;;5024926;28;19916;-79
2024/04/06 11:57:01;;;;;;;;;;;23.50;99.90;;;;;;5035026;28;19919;-79
2024/04/06 11:59:27;;;;;;;;;;;23.60;99.90;;;;;;5057315;28;20384;-80
2024/04/06 12:01:53;;;;;;;;;;;23.60;99.90;;;;;;5078802;28;19920;-79
2024/04/06 12:04:19;;;;;;;;;;;23.70;99.90;;;;;;5077960;28;19970;-79
2024/04/06 12:06:44;;;;;;;;;;;23.70;99.90;;;;;;5076916;28;19916;-80
2024/04/06 12:09:10;;;;;;;;;;;23.70;99.90;;;;;;5087472;28;19974;-80
2024/04/06 12:11:36;;;;;;;;;;;23.70;99.90;;;;;;5061576;28;19912;-79
2024/04/06 12:14:02;;;;;;;;;;;23.70;99.90;;;;;;5051303;28;20007;-79
2024/04/06 12:16:28;;;;;;;;;;;23.70;99.90;;;;;;5086097;28;20016;-79
2024/04/06 12:18:54;;;;;;;;;;;23.90;99.90;;;;;;5052242;28;19924;-79
2024/04/06 12:21:20;;;;;;;;;;;24.10;99.90;;;;;;5088458;28;20371;-79
2024/04/06 12:23:46;;;;;;;;;;;24.00;99.90;;;;;;5094975;28;19912;-79
2024/04/06 12:26:11;;;;;;;;;;;24.00;99.90;;;;;;5093126;28;19923;-79
2024/04/06 12:28:37;;;;;;;;;;;23.80;99.90;;;;;;5061049;28;19919;-79
2024/04/06 12:31:03;;;;;;;;;;;23.90;99.90;;;;;;5042380;28;19916;-79
2024/04/06 12:33:29;;;;;;;;;;;23.90;99.90;;;;;;5079472;28;20347;-79
2024/04/06 12:35:55;;;;;;;;;;;24.00;99.90;;;;;;5056471;28;19916;-79
2024/04/06 12:38:21;;;;;;;;;;;24.10;99.90;;;;;;5056799;28;19921;-79
2024/04/06 12:40:46;;;;;;;;;;;24.20;99.90;;;;;;5039795;28;19924;-79
2024/04/06 12:43:12;;;;;;;;;;;24.30;99.90;;;;;;5065216;28;20008;-79
2024/04/06 12:45:38;;;;;;;;;;;24.40;99.90;;;;;;5071543;28;19916;-80
2024/04/06 12:48:04;;;;;;;;;;;24.50;99.90;;;;;;5059937;28;19922;-79
2024/04/06 12:50:29;;;;;;;;;;;24.50;99.90;;;;;;5061415;28;20412;-79
2024/04/06 12:52:55;;;;;;;;;;;24.60;99.90;;;;;;5060969;28;20340;-79
2024/04/06 12:55:21;;;;;;;;;;;24.70;99.50;;;;;;5077489;28;19952;-79
2024/04/06 12:57:46;;;;;;;;;;;24.80;99.90;;;;;;5096126;28;19916;-79
2024/04/06 13:00:15;;;;;;;;;;;24.80;99.90;;;;;;5078783;28;19916;-79
2024/04/06 13:02:41;;;;;;;;;;;24.90;99.90;;;;;;5041793;28;20330;-79
2024/04/06 13:05:07;;;;;;;;;;;25.10;99.90;;;;;;5048845;28;19920;-79
2024/04/06 13:07:33;;;;;;;;;;;25.30;99.90;;;;;;5064494;28;20247;-79
2024/04/06 13:10:04;;;;;;;;;;;25.30;99.90;;;;;;5083222;28;20422;-79
2024/04/06 13:12:30;;;;;;;;;;;25.40;99.50;;;;;;5078097;28;19923;-79
2024/04/06 13:15:00;;;;;;;;;;;25.60;99.70;;;;;;5076450;28;19916;-79
2024/04/06 13:17:25;;;;;;;;;;;25.70;98.40;;;;;;5065089;28;19920;-79
2024/04/06 13:19:52;;;;;;;;;;;25.70;97.80;;;;;;5066973;28;20000;-78
2024/04/06 13:22:17;;;;;;;;;;;25.70;97.50;;;;;;5060080;28;19916;-78
2024/04/06 13:24:43;;;;;;;;;;;25.80;97.30;;;;;;5070122;28;19916;-78
2024/04/06 13:27:09;;;;;;;;;;;26.10;97.50;;;;;;5091367;28;20226;-78
2024/04/06 13:29:34;;;;;;;;;;;26.20;97.10;;;;;;5094463;28;19951;-78
2024/04/06 13:32:00;;;;;;;;;;;26.20;97.40;;;;;;5035373;28;20004;-78
2024/04/06 13:34:26;;;;;;;;;;;26.30;97.00;;;;;;5077883;28;19916;-78
2024/04/06 13:36:52;;;;;;;;;;;26.60;97.50;;;;;;5058108;28;19923;-78
2024/04/06 13:39:20;;;;;;;;;;;26.70;96.90;;;;;;5080505;28;19934;-78
2024/04/06 13:41:46;;;;;;;;;;;26.40;96.50;;;;;;5079331;28;19935;-78
2024/04/06 13:44:12;;;;;;;;;;;26.40;96.40;;;;;;5090190;28;20236;-79
2024/04/06 13:46:38;;;;;;;;;;;26.60;96.10;;;;;;5067711;28;20321;-78
2024/04/06 13:49:04;;;;;;;;;;;26.50;95.40;;;;;;5097772;28;19912;-79
2024/04/06 13:51:29;;;;;;;;;;;26.40;96.60;;;;;;5064543;28;19919;-79
2024/04/06 13:53:55;;;;;;;;;;;26.50;96.60;;;;;;5064076;28;19919;-78
2024/04/06 13:56:21;;;;;;;;;;;26.20;95.00;;;;;;5080564;28;19923;-78
2024/04/06 13:58:49;;;;;;;;;;;26.00;95.70;;;;;;5064130;28;19916;-79
2024/04/06 14:01:15;;;;;;;;;;;25.90;95.10;;;;;;5080127;28;19977;-78
2024/04/06 14:03:41;;;;;;;;;;;25.80;95.80;;;;;;5080132;28;19916;-78
2024/04/06 14:06:06;;;;;;;;;;;25.60;95.40;;;;;;5072943;28;19916;-78
2024/04/06 14:08:32;;;;;;;;;;;25.50;95.90;;;;;;5078568;28;19962;-78
2024/04/06 14:10:58;;;;;;;;;;;25.20;95.90;;;;;;5063316;28;20011;-78